Huvudsida
METAR-TAF:

METAR-TAF

Flygplatser :

Stavangers flygplats. Sola

Stavanger, Norge

latitud: 58-53N, longitud: 005-38E, höjd: 0 m

Aktuellt väderrapport

Denna rapport gjordes för 11 minuter sedan, klockan 13:50 UTC
Vind 9 kt från nord
Temperatur 11°C
Fuktighet 76%
Tryck 1015 hPa
Sikt 10 km eller mer
Få moln på en höjd av 2000 ft
Brutna moln på en höjd av 12000 ft

METAR: ENZV 151350Z 35009KT 9999 FEW020 BKN120 11/07 Q1015 NOSIG

Tid: 16:01 (14:01 UTC)

Väderprognos

Prognos gäller från 15 kl. 12 UTC till 16 kl. 12 UTC
Vind 10 kt från nord/nordväst
Sikt 10 km eller mer
Få moln på en höjd av 2000 ft
Blir
från 15 kl. 16 UTC till 15 kl. 19 UTC
Vind 3 kt varierande vindriktning
Blir
från 16 kl. 07 UTC till 16 kl. 10 UTC
Vind 12 kt från syd/sydost

TAF: ENZV 1512/1612 34010KT 9999 FEW020 BECMG 1516/1519 VRB03KT BECMG 1607/1610 15012KT

Aktuella väderrapporter och prognoser från 4000 flygplatser (METAR- och TAF-rapporter).

De tillgängliga stationerna syns som gula och röda prickar på kartan.

För musen över prickarna för att se namnen på stationerna.

Klicka sedan för att få väderrapporter och prognoser.

För att ändra kartan: Klicka på de gröna knapparna med ett svart kors på för att zooma in; den gröna knappen med ett streck på för att zooma ut; eller på de gröna pilarna för angränsande kartor.


METAR-TAF: